sensor_id;sensor_type;location;lat;lon;timestamp;temperature;humidity
56123;DHT22;42426;46.104;19.656;2023-09-30T00:00:56;435.60;2355.20
56123;DHT22;42426;46.104;19.656;2023-09-30T00:03:22;435.60;2355.20
56123;DHT22;42426;46.104;19.656;2023-09-30T00:05:48;435.50;2355.20
56123;DHT22;42426;46.104;19.656;2023-09-30T00:08:14;435.50;2355.20
56123;DHT22;42426;46.104;19.656;2023-09-30T00:10:39;435.50;2355.20
56123;DHT22;42426;46.104;19.656;2023-09-30T00:13:05;435.50;2355.20
56123;DHT22;42426;46.104;19.656;2023-09-30T00:15:34;435.50;2355.20
56123;DHT22;42426;46.104;19.656;2023-09-30T00:18:00;435.40;2355.20
56123;DHT22;42426;46.104;19.656;2023-09-30T00:20:27;435.50;2355.20
56123;DHT22;42426;46.104;19.656;2023-09-30T00:22:53;435.30;2355.20
56123;DHT22;42426;46.104;19.656;2023-09-30T00:25:19;435.40;2355.20
56123;DHT22;42426;46.104;19.656;2023-09-30T00:27:46;435.30;2355.20
56123;DHT22;42426;46.104;19.656;2023-09-30T00:30:12;435.40;2355.20
56123;DHT22;42426;46.104;19.656;2023-09-30T00:32:38;435.30;2355.20
56123;DHT22;42426;46.104;19.656;2023-09-30T00:35:05;435.30;2355.20
56123;DHT22;42426;46.104;19.656;2023-09-30T00:37:37;435.30;2355.20
56123;DHT22;42426;46.104;19.656;2023-09-30T00:40:03;435.20;2355.20
56123;DHT22;42426;46.104;19.656;2023-09-30T00:42:29;435.20;2355.20
56123;DHT22;42426;46.104;19.656;2023-09-30T00:44:55;435.20;2355.20
56123;DHT22;42426;46.104;19.656;2023-09-30T00:47:22;435.20;2355.20
56123;DHT22;42426;46.104;19.656;2023-09-30T00:49:49;435.20;2355.20
56123;DHT22;42426;46.104;19.656;2023-09-30T00:52:16;435.30;2355.20
56123;DHT22;42426;46.104;19.656;2023-09-30T00:54:42;435.20;2355.20
56123;DHT22;42426;46.104;19.656;2023-09-30T00:57:09;435.20;2355.20
56123;DHT22;42426;46.104;19.656;2023-09-30T00:59:36;435.20;2355.20
56123;DHT22;42426;46.104;19.656;2023-09-30T01:02:03;435.20;2355.20
56123;DHT22;42426;46.104;19.656;2023-09-30T01:04:31;410.40;2355.20
56123;DHT22;42426;46.104;19.656;2023-09-30T01:09:23;435.30;2355.20
56123;DHT22;42426;46.104;19.656;2023-09-30T01:11:49;410.40;2355.20
56123;DHT22;42426;46.104;19.656;2023-09-30T01:14:32;410.40;2355.20
56123;DHT22;42426;46.104;19.656;2023-09-30T01:16:58;410.40;2355.20
56123;DHT22;42426;46.104;19.656;2023-09-30T01:19:25;410.40;2355.20
56123;DHT22;42426;46.104;19.656;2023-09-30T01:22:00;410.40;2355.20
56123;DHT22;42426;46.104;19.656;2023-09-30T01:24:29;435.20;2355.20
56123;DHT22;42426;46.104;19.656;2023-09-30T01:26:56;410.40;2355.20
56123;DHT22;42426;46.104;19.656;2023-09-30T01:29:21;410.30;2355.20
56123;DHT22;42426;46.104;19.656;2023-09-30T01:31:48;410.30;2355.20
56123;DHT22;42426;46.104;19.656;2023-09-30T01:34:15;410.30;2355.20
56123;DHT22;42426;46.104;19.656;2023-09-30T01:44:02;410.40;2355.20
56123;DHT22;42426;46.104;19.656;2023-09-30T01:46:28;410.30;2355.20
56123;DHT22;42426;46.104;19.656;2023-09-30T01:48:53;410.20;2355.20
56123;DHT22;42426;46.104;19.656;2023-09-30T01:51:19;410.20;2355.20
56123;DHT22;42426;46.104;19.656;2023-09-30T01:53:45;410.20;2355.20
56123;DHT22;42426;46.104;19.656;2023-09-30T01:56:10;410.10;2355.20
56123;DHT22;42426;46.104;19.656;2023-09-30T01:58:36;410.10;2355.20
56123;DHT22;42426;46.104;19.656;2023-09-30T02:01:03;410.10;2355.20
56123;DHT22;42426;46.104;19.656;2023-09-30T02:03:29;410.10;2355.20
56123;DHT22;42426;46.104;19.656;2023-09-30T02:05:56;410.10;2355.20
56123;DHT22;42426;46.104;19.656;2023-09-30T02:08:22;410.10;2355.20
56123;DHT22;42426;46.104;19.656;2023-09-30T02:10:48;410.10;2355.20
56123;DHT22;42426;46.104;19.656;2023-09-30T02:13:14;410.00;2355.20
56123;DHT22;42426;46.104;19.656;2023-09-30T02:15:40;410.00;2355.20
56123;DHT22;42426;46.104;19.656;2023-09-30T02:18:06;410.00;2355.20
56123;DHT22;42426;46.104;19.656;2023-09-30T02:20:32;410.00;2355.20
56123;DHT22;42426;46.104;19.656;2023-09-30T02:22:59;410.00;2355.20
56123;DHT22;42426;46.104;19.656;2023-09-30T02:25:25;409.90;2355.20
56123;DHT22;42426;46.104;19.656;2023-09-30T02:27:51;409.90;2355.20
56123;DHT22;42426;46.104;19.656;2023-09-30T02:30:16;409.90;2355.20
56123;DHT22;42426;46.104;19.656;2023-09-30T02:32:42;409.90;2355.20
56123;DHT22;42426;46.104;19.656;2023-09-30T02:35:11;409.90;2355.20
56123;DHT22;42426;46.104;19.656;2023-09-30T02:37:38;409.80;2355.20
56123;DHT22;42426;46.104;19.656;2023-09-30T02:40:07;409.80;2355.20
56123;DHT22;42426;46.104;19.656;2023-09-30T02:42:37;409.80;2355.20
56123;DHT22;42426;46.104;19.656;2023-09-30T02:45:04;409.80;2355.20
56123;DHT22;42426;46.104;19.656;2023-09-30T02:47:30;409.80;2355.20
56123;DHT22;42426;46.104;19.656;2023-09-30T02:49:57;409.80;2355.20
56123;DHT22;42426;46.104;19.656;2023-09-30T02:59:47;410.10;2355.20
56123;DHT22;42426;46.104;19.656;2023-09-30T03:02:13;409.80;2355.20
56123;DHT22;42426;46.104;19.656;2023-09-30T03:04:40;409.80;2355.20
56123;DHT22;42426;46.104;19.656;2023-09-30T03:07:08;409.80;2355.20
56123;DHT22;42426;46.104;19.656;2023-09-30T03:09:34;409.80;2355.20
56123;DHT22;42426;46.104;19.656;2023-09-30T03:12:02;409.80;2355.20
56123;DHT22;42426;46.104;19.656;2023-09-30T03:14:30;409.70;2355.20
56123;DHT22;42426;46.104;19.656;2023-09-30T03:16:59;409.70;2355.20
56123;DHT22;42426;46.104;19.656;2023-09-30T03:38:58;409.80;2355.20
56123;DHT22;42426;46.104;19.656;2023-09-30T06:25:56;435.20;2355.20
56123;DHT22;42426;46.104;19.656;2023-09-30T06:28:22;410.40;2355.20
56123;DHT22;42426;46.104;19.656;2023-09-30T06:30:52;410.40;2355.20
56123;DHT22;42426;46.104;19.656;2023-09-30T06:33:18;410.50;2355.20
56123;DHT22;42426;46.104;19.656;2023-09-30T06:35:43;435.20;2355.20
56123;DHT22;42426;46.104;19.656;2023-09-30T06:38:19;435.30;2355.20
56123;DHT22;42426;46.104;19.656;2023-09-30T06:40:45;435.30;2355.20
56123;DHT22;42426;46.104;19.656;2023-09-30T06:43:17;435.40;2355.20
56123;DHT22;42426;46.104;19.656;2023-09-30T06:45:43;435.50;2355.20
56123;DHT22;42426;46.104;19.656;2023-09-30T06:48:11;435.70;2355.20
56123;DHT22;42426;46.104;19.656;2023-09-30T06:50:45;435.60;2355.20
56123;DHT22;42426;46.104;19.656;2023-09-30T06:53:11;435.80;2355.20
56123;DHT22;42426;46.104;19.656;2023-09-30T06:55:38;435.90;2355.20
56123;DHT22;42426;46.104;19.656;2023-09-30T06:58:05;436.00;2355.20
56123;DHT22;42426;46.104;19.656;2023-09-30T07:00:33;436.10;2355.20
56123;DHT22;42426;46.104;19.656;2023-09-30T07:03:00;460.80;2380.80
56123;DHT22;42426;46.104;19.656;2023-09-30T07:05:26;461.00;2380.80
56123;DHT22;42426;46.104;19.656;2023-09-30T07:07:51;461.10;2380.80
56123;DHT22;42426;46.104;19.656;2023-09-30T07:10:17;461.20;2380.80
56123;DHT22;42426;46.104;19.656;2023-09-30T07:12:43;461.30;2380.80
56123;DHT22;42426;46.104;19.656;2023-09-30T07:15:09;461.40;2380.80
56123;DHT22;42426;46.104;19.656;2023-09-30T07:17:35;461.60;2380.80
56123;DHT22;42426;46.104;19.656;2023-09-30T07:20:02;461.50;2380.80
56123;DHT22;42426;46.104;19.656;2023-09-30T07:22:28;486.50;2380.80
56123;DHT22;42426;46.104;19.656;2023-09-30T07:24:53;461.70;2380.80
56123;DHT22;42426;46.104;19.656;2023-09-30T07:27:19;486.40;2380.80
56123;DHT22;42426;46.104;19.656;2023-09-30T07:29:45;486.50;2380.80
56123;DHT22;42426;46.104;19.656;2023-09-30T07:32:10;486.60;2380.80
56123;DHT22;42426;46.104;19.656;2023-09-30T07:34:36;487.00;2380.80
56123;DHT22;42426;46.104;19.656;2023-09-30T07:37:02;486.90;2380.80
56123;DHT22;42426;46.104;19.656;2023-09-30T07:44:22;512.30;2380.80
56123;DHT22;42426;46.104;19.656;2023-09-30T07:49:13;512.50;2304.00
56123;DHT22;42426;46.104;19.656;2023-09-30T07:54:06;512.80;2278.40
56123;DHT22;42426;46.104;19.656;2023-09-30T07:56:32;512.60;2252.80
56123;DHT22;42426;46.104;19.656;2023-09-30T07:58:58;512.70;2227.20
56123;DHT22;42426;46.104;19.656;2023-09-30T08:01:23;512.80;2201.60
56123;DHT22;42426;46.104;19.656;2023-09-30T08:03:49;512.90;2201.60
56123;DHT22;42426;46.104;19.656;2023-09-30T08:06:15;512.90;2176.00
56123;DHT22;42426;46.104;19.656;2023-09-30T08:08:41;537.60;2201.60
56123;DHT22;42426;46.104;19.656;2023-09-30T08:11:06;537.90;2176.00
56123;DHT22;42426;46.104;19.656;2023-09-30T08:13:33;537.90;2201.60
56123;DHT22;42426;46.104;19.656;2023-09-30T08:15:59;538.10;2176.00
56123;DHT22;42426;46.104;19.656;2023-09-30T08:18:25;538.20;2176.00
56123;DHT22;42426;46.104;19.656;2023-09-30T08:20:50;538.50;2124.80
56123;DHT22;42426;46.104;19.656;2023-09-30T08:23:16;538.40;2099.20
56123;DHT22;42426;46.104;19.656;2023-09-30T08:25:42;538.40;2124.80
56123;DHT22;42426;46.104;19.656;2023-09-30T08:28:08;538.40;2124.80
56123;DHT22;42426;46.104;19.656;2023-09-30T08:57:46;589.00;1868.80
56123;DHT22;42426;46.104;19.656;2023-09-30T09:00:15;588.80;1868.80
56123;DHT22;42426;46.104;19.656;2023-09-30T09:02:42;588.80;1817.60
56123;DHT22;42426;46.104;19.656;2023-09-30T09:05:08;588.80;1843.20
56123;DHT22;42426;46.104;19.656;2023-09-30T09:07:36;588.90;1817.60
56123;DHT22;42426;46.104;19.656;2023-09-30T09:12:36;589.10;1740.80
56123;DHT22;42426;46.104;19.656;2023-09-30T09:15:03;589.10;1715.20
56123;DHT22;42426;46.104;19.656;2023-09-30T09:17:44;589.20;1715.20
56123;DHT22;42426;46.104;19.656;2023-09-30T09:20:12;589.30;1715.20
56123;DHT22;42426;46.104;19.656;2023-09-30T09:22:44;589.40;1715.20
56123;DHT22;42426;46.104;19.656;2023-09-30T09:25:12;589.40;1715.20
56123;DHT22;42426;46.104;19.656;2023-09-30T09:27:38;589.70;1664.00
56123;DHT22;42426;46.104;19.656;2023-09-30T09:32:59;614.50;1638.40
56123;DHT22;42426;46.104;19.656;2023-09-30T09:35:26;589.70;1638.40
56123;DHT22;42426;46.104;19.656;2023-09-30T09:40:26;614.40;1638.40
56123;DHT22;42426;46.104;19.656;2023-09-30T09:42:52;614.50;1612.80
56123;DHT22;42426;46.104;19.656;2023-09-30T09:45:24;614.50;1587.20
56123;DHT22;42426;46.104;19.656;2023-09-30T09:47:51;614.60;1638.40
56123;DHT22;42426;46.104;19.656;2023-09-30T09:50:18;614.60;1664.00
56123;DHT22;42426;46.104;19.656;2023-09-30T09:52:49;614.70;1638.40
56123;DHT22;42426;46.104;19.656;2023-09-30T09:55:20;614.70;1612.80
56123;DHT22;42426;46.104;19.656;2023-09-30T09:57:48;614.80;1561.60
56123;DHT22;42426;46.104;19.656;2023-09-30T10:15:37;640.30;1510.40
56123;DHT22;42426;46.104;19.656;2023-09-30T10:25:41;640.30;1510.40
56123;DHT22;42426;46.104;19.656;2023-09-30T10:31:20;640.30;1587.20
56123;DHT22;42426;46.104;19.656;2023-09-30T10:36:36;640.10;1484.80
56123;DHT22;42426;46.104;19.656;2023-09-30T10:39:03;640.10;1459.20
56123;DHT22;42426;46.104;19.656;2023-09-30T10:46:59;640.30;1382.40
56123;DHT22;42426;46.104;19.656;2023-09-30T10:51:52;640.70;1408.00
56123;DHT22;42426;46.104;19.656;2023-09-30T10:54:25;640.50;1408.00
56123;DHT22;42426;46.104;19.656;2023-09-30T10:56:51;640.50;1408.00
56123;DHT22;42426;46.104;19.656;2023-09-30T10:59:25;640.50;1382.40
56123;DHT22;42426;46.104;19.656;2023-09-30T11:01:52;640.60;1408.00
56123;DHT22;42426;46.104;19.656;2023-09-30T11:04:18;640.60;1408.00
56123;DHT22;42426;46.104;19.656;2023-09-30T11:06:45;640.70;1408.00
56123;DHT22;42426;46.104;19.656;2023-09-30T11:09:19;640.70;1382.40
56123;DHT22;42426;46.104;19.656;2023-09-30T11:11:47;640.80;1356.80
56123;DHT22;42426;46.104;19.656;2023-09-30T11:14:27;640.80;1356.80
56123;DHT22;42426;46.104;19.656;2023-09-30T11:16:55;640.80;1382.40
56123;DHT22;42426;46.104;19.656;2023-09-30T11:19:22;640.90;1356.80
56123;DHT22;42426;46.104;19.656;2023-09-30T11:21:54;665.60;1408.00
56123;DHT22;42426;46.104;19.656;2023-09-30T11:24:21;665.60;1305.60
56123;DHT22;42426;46.104;19.656;2023-09-30T11:26:47;640.90;1280.00
56123;DHT22;42426;46.104;19.656;2023-09-30T11:29:14;640.80;1280.00
56123;DHT22;42426;46.104;19.656;2023-09-30T11:31:45;640.80;1305.60
56123;DHT22;42426;46.104;19.656;2023-09-30T11:34:12;640.80;1356.80
56123;DHT22;42426;46.104;19.656;2023-09-30T11:36:52;640.80;1356.80
56123;DHT22;42426;46.104;19.656;2023-09-30T11:39:25;640.90;1382.40
56123;DHT22;42426;46.104;19.656;2023-09-30T11:41:51;665.60;1382.40
56123;DHT22;42426;46.104;19.656;2023-09-30T11:44:17;665.60;1382.40
56123;DHT22;42426;46.104;19.656;2023-09-30T11:49:35;665.70;1408.00
56123;DHT22;42426;46.104;19.656;2023-09-30T11:52:08;665.60;1459.20
56123;DHT22;42426;46.104;19.656;2023-09-30T11:54:36;665.70;1408.00
56123;DHT22;42426;46.104;19.656;2023-09-30T13:47:35;640.80;1766.40
56123;DHT22;42426;46.104;19.656;2023-09-30T13:50:01;640.70;1612.80
56123;DHT22;42426;46.104;19.656;2023-09-30T13:52:29;640.40;1638.40
56123;DHT22;42426;46.104;19.656;2023-09-30T13:54:55;640.30;1664.00
56123;DHT22;42426;46.104;19.656;2023-09-30T13:57:21;640.20;1689.60
56123;DHT22;42426;46.104;19.656;2023-09-30T13:59:47;640.10;1715.20
56123;DHT22;42426;46.104;19.656;2023-09-30T14:02:12;640.00;1740.80
56123;DHT22;42426;46.104;19.656;2023-09-30T14:04:38;640.00;1766.40
56123;DHT22;42426;46.104;19.656;2023-09-30T14:07:04;615.30;1792.00
56123;DHT22;42426;46.104;19.656;2023-09-30T14:09:33;615.20;1817.60
56123;DHT22;42426;46.104;19.656;2023-09-30T14:11:59;615.20;1817.60
56123;DHT22;42426;46.104;19.656;2023-09-30T14:14:25;615.10;1843.20
56123;DHT22;42426;46.104;19.656;2023-09-30T14:16:52;615.00;1868.80
56123;DHT22;42426;46.104;19.656;2023-09-30T14:19:18;614.90;1894.40
56123;DHT22;42426;46.104;19.656;2023-09-30T14:21:44;614.80;1894.40
56123;DHT22;42426;46.104;19.656;2023-09-30T14:24:11;614.80;1920.00
56123;DHT22;42426;46.104;19.656;2023-09-30T14:26:37;614.60;1920.00
56123;DHT22;42426;46.104;19.656;2023-09-30T14:29:03;614.60;1920.00
56123;DHT22;42426;46.104;19.656;2023-09-30T14:31:29;614.50;1945.60
56123;DHT22;42426;46.104;19.656;2023-09-30T14:33:55;614.40;1945.60
56123;DHT22;42426;46.104;19.656;2023-09-30T14:36:20;614.40;1945.60
56123;DHT22;42426;46.104;19.656;2023-09-30T14:38:48;589.70;1971.20
56123;DHT22;42426;46.104;19.656;2023-09-30T14:41:15;589.70;1971.20
56123;DHT22;42426;46.104;19.656;2023-09-30T14:43:41;589.70;1971.20
56123;DHT22;42426;46.104;19.656;2023-09-30T14:46:07;589.70;1971.20
56123;DHT22;42426;46.104;19.656;2023-09-30T14:48:36;589.70;1996.80
56123;DHT22;42426;46.104;19.656;2023-09-30T14:51:02;589.70;1996.80
56123;DHT22;42426;46.104;19.656;2023-09-30T14:53:31;589.70;1996.80
56123;DHT22;42426;46.104;19.656;2023-09-30T14:55:56;589.60;1996.80
56123;DHT22;42426;46.104;19.656;2023-09-30T14:58:22;589.70;2022.40
56123;DHT22;42426;46.104;19.656;2023-09-30T15:00:48;589.60;2022.40
56123;DHT22;42426;46.104;19.656;2023-09-30T15:03:13;589.70;2022.40
56123;DHT22;42426;46.104;19.656;2023-09-30T15:05:39;589.60;2048.00
56123;DHT22;42426;46.104;19.656;2023-09-30T15:08:05;589.50;2048.00
56123;DHT22;42426;46.104;19.656;2023-09-30T15:10:34;589.50;2048.00
56123;DHT22;42426;46.104;19.656;2023-09-30T15:13:01;589.50;2073.60
56123;DHT22;42426;46.104;19.656;2023-09-30T15:15:27;589.40;2073.60
56123;DHT22;42426;46.104;19.656;2023-09-30T15:17:53;589.30;2073.60
56123;DHT22;42426;46.104;19.656;2023-09-30T15:20:20;589.30;2099.20
56123;DHT22;42426;46.104;19.656;2023-09-30T15:22:46;589.30;2099.20
56123;DHT22;42426;46.104;19.656;2023-09-30T15:25:12;589.20;2099.20
56123;DHT22;42426;46.104;19.656;2023-09-30T15:27:38;589.20;2099.20
56123;DHT22;42426;46.104;19.656;2023-09-30T15:30:04;589.10;2099.20
56123;DHT22;42426;46.104;19.656;2023-09-30T15:32:32;589.10;2099.20
56123;DHT22;42426;46.104;19.656;2023-09-30T15:34:57;589.10;2099.20
56123;DHT22;42426;46.104;19.656;2023-09-30T15:37:23;589.00;2073.60
56123;DHT22;42426;46.104;19.656;2023-09-30T15:39:49;589.00;2073.60
56123;DHT22;42426;46.104;19.656;2023-09-30T15:42:14;588.90;2073.60
56123;DHT22;42426;46.104;19.656;2023-09-30T15:44:41;588.90;2099.20
56123;DHT22;42426;46.104;19.656;2023-09-30T15:47:07;588.90;2099.20
56123;DHT22;42426;46.104;19.656;2023-09-30T15:49:34;588.80;2099.20
56123;DHT22;42426;46.104;19.656;2023-09-30T15:52:00;588.80;2099.20
56123;DHT22;42426;46.104;19.656;2023-09-30T15:54:26;564.10;2099.20
56123;DHT22;42426;46.104;19.656;2023-09-30T15:56:52;564.10;2099.20
56123;DHT22;42426;46.104;19.656;2023-09-30T15:59:18;564.10;2099.20
56123;DHT22;42426;46.104;19.656;2023-09-30T16:01:44;564.00;2124.80
56123;DHT22;42426;46.104;19.656;2023-09-30T16:04:10;564.00;2124.80
56123;DHT22;42426;46.104;19.656;2023-09-30T16:06:35;563.90;2124.80
56123;DHT22;42426;46.104;19.656;2023-09-30T16:09:01;563.90;2124.80
56123;DHT22;42426;46.104;19.656;2023-09-30T16:11:27;563.80;2150.40
56123;DHT22;42426;46.104;19.656;2023-09-30T16:13:54;563.80;2150.40
56123;DHT22;42426;46.104;19.656;2023-09-30T16:16:20;563.80;2150.40
56123;DHT22;42426;46.104;19.656;2023-09-30T16:18:46;563.80;2150.40
56123;DHT22;42426;46.104;19.656;2023-09-30T16:21:12;563.70;2150.40
56123;DHT22;42426;46.104;19.656;2023-09-30T16:23:38;563.70;2176.00
56123;DHT22;42426;46.104;19.656;2023-09-30T16:26:03;563.60;2176.00
56123;DHT22;42426;46.104;19.656;2023-09-30T16:28:29;563.60;2201.60
56123;DHT22;42426;46.104;19.656;2023-09-30T16:30:55;563.60;2201.60
56123;DHT22;42426;46.104;19.656;2023-09-30T16:33:21;563.50;2227.20
56123;DHT22;42426;46.104;19.656;2023-09-30T16:35:54;563.50;2252.80
56123;DHT22;42426;46.104;19.656;2023-09-30T16:38:21;563.50;2252.80
56123;DHT22;42426;46.104;19.656;2023-09-30T16:40:48;563.40;2278.40
56123;DHT22;42426;46.104;19.656;2023-09-30T16:43:14;563.40;2278.40
56123;DHT22;42426;46.104;19.656;2023-09-30T16:45:40;563.20;2278.40
56123;DHT22;42426;46.104;19.656;2023-09-30T16:48:08;538.50;2278.40
56123;DHT22;42426;46.104;19.656;2023-09-30T16:50:44;563.20;2304.00
56123;DHT22;42426;46.104;19.656;2023-09-30T16:53:10;563.20;2304.00
56123;DHT22;42426;46.104;19.656;2023-09-30T16:55:36;538.50;2278.40
56123;DHT22;42426;46.104;19.656;2023-09-30T16:58:02;538.50;2278.40
56123;DHT22;42426;46.104;19.656;2023-09-30T17:00:28;538.50;2304.00
56123;DHT22;42426;46.104;19.656;2023-09-30T17:02:54;538.40;2304.00
56123;DHT22;42426;46.104;19.656;2023-09-30T17:05:20;538.40;2304.00
56123;DHT22;42426;46.104;19.656;2023-09-30T17:07:46;538.40;2304.00
56123;DHT22;42426;46.104;19.656;2023-09-30T17:10:12;538.40;2304.00
56123;DHT22;42426;46.104;19.656;2023-09-30T17:12:38;538.40;2304.00
56123;DHT22;42426;46.104;19.656;2023-09-30T17:15:05;538.30;2304.00
56123;DHT22;42426;46.104;19.656;2023-09-30T17:17:31;538.30;2329.60
56123;DHT22;42426;46.104;19.656;2023-09-30T17:19:58;538.30;2329.60
56123;DHT22;42426;46.104;19.656;2023-09-30T17:22:24;538.30;2329.60
56123;DHT22;42426;46.104;19.656;2023-09-30T17:24:50;538.20;2329.60
56123;DHT22;42426;46.104;19.656;2023-09-30T17:27:16;538.20;2329.60
56123;DHT22;42426;46.104;19.656;2023-09-30T17:29:42;538.20;2329.60
56123;DHT22;42426;46.104;19.656;2023-09-30T17:32:07;538.20;2355.20
56123;DHT22;42426;46.104;19.656;2023-09-30T17:34:34;538.10;2355.20
56123;DHT22;42426;46.104;19.656;2023-09-30T17:37:04;538.10;2355.20
56123;DHT22;42426;46.104;19.656;2023-09-30T17:39:30;538.10;2355.20
56123;DHT22;42426;46.104;19.656;2023-09-30T17:41:57;538.10;2355.20
56123;DHT22;42426;46.104;19.656;2023-09-30T17:44:23;538.00;2355.20
56123;DHT22;42426;46.104;19.656;2023-09-30T17:46:48;538.00;2355.20
56123;DHT22;42426;46.104;19.656;2023-09-30T17:49:14;538.00;2355.20
56123;DHT22;42426;46.104;19.656;2023-09-30T17:51:40;538.00;2380.80
56123;DHT22;42426;46.104;19.656;2023-09-30T17:54:12;538.00;2380.80
56123;DHT22;42426;46.104;19.656;2023-09-30T17:56:38;538.00;2380.80
56123;DHT22;42426;46.104;19.656;2023-09-30T17:59:09;537.90;2380.80
56123;DHT22;42426;46.104;19.656;2023-09-30T18:01:37;537.90;2380.80
56123;DHT22;42426;46.104;19.656;2023-09-30T18:04:03;537.90;2380.80
56123;DHT22;42426;46.104;19.656;2023-09-30T18:06:31;537.90;2406.40
56123;DHT22;42426;46.104;19.656;2023-09-30T18:08:57;537.80;2406.40
56123;DHT22;42426;46.104;19.656;2023-09-30T18:11:23;537.80;2406.40
56123;DHT22;42426;46.104;19.656;2023-09-30T18:13:48;537.80;2406.40
56123;DHT22;42426;46.104;19.656;2023-09-30T18:16:14;537.70;2406.40
56123;DHT22;42426;46.104;19.656;2023-09-30T18:18:40;537.70;2406.40
56123;DHT22;42426;46.104;19.656;2023-09-30T18:21:09;537.70;2406.40
56123;DHT22;42426;46.104;19.656;2023-09-30T18:23:37;537.60;2406.40
56123;DHT22;42426;46.104;19.656;2023-09-30T18:26:03;537.60;2406.40
56123;DHT22;42426;46.104;19.656;2023-09-30T18:28:29;537.60;2406.40
56123;DHT22;42426;46.104;19.656;2023-09-30T18:30:57;537.60;2406.40
56123;DHT22;42426;46.104;19.656;2023-09-30T18:33:23;537.60;2406.40
56123;DHT22;42426;46.104;19.656;2023-09-30T18:35:49;537.60;2406.40
56123;DHT22;42426;46.104;19.656;2023-09-30T18:38:16;537.60;2406.40
56123;DHT22;42426;46.104;19.656;2023-09-30T18:40:41;512.90;2380.80
56123;DHT22;42426;46.104;19.656;2023-09-30T18:43:12;512.90;2380.80
56123;DHT22;42426;46.104;19.656;2023-09-30T18:45:45;512.50;2380.80
56123;DHT22;42426;46.104;19.656;2023-09-30T18:48:12;512.80;2380.80
56123;DHT22;42426;46.104;19.656;2023-09-30T18:50:48;512.70;2380.80
56123;DHT22;42426;46.104;19.656;2023-09-30T18:53:14;512.80;2380.80
56123;DHT22;42426;46.104;19.656;2023-09-30T18:55:45;512.80;2380.80
56123;DHT22;42426;46.104;19.656;2023-09-30T18:58:13;512.80;2380.80
56123;DHT22;42426;46.104;19.656;2023-09-30T19:00:41;512.80;2380.80
56123;DHT22;42426;46.104;19.656;2023-09-30T19:03:08;512.80;2380.80
56123;DHT22;42426;46.104;19.656;2023-09-30T19:05:34;512.80;2380.80
56123;DHT22;42426;46.104;19.656;2023-09-30T19:08:00;512.70;2380.80
56123;DHT22;42426;46.104;19.656;2023-09-30T19:10:27;512.80;2380.80
56123;DHT22;42426;46.104;19.656;2023-09-30T19:12:53;512.80;2380.80
56123;DHT22;42426;46.104;19.656;2023-09-30T19:15:18;512.80;2380.80
56123;DHT22;42426;46.104;19.656;2023-09-30T19:17:44;512.70;2380.80
56123;DHT22;42426;46.104;19.656;2023-09-30T19:20:11;512.70;2380.80
56123;DHT22;42426;46.104;19.656;2023-09-30T19:22:37;512.70;2380.80
56123;DHT22;42426;46.104;19.656;2023-09-30T19:25:06;512.70;2380.80
56123;DHT22;42426;46.104;19.656;2023-09-30T19:27:32;512.70;2380.80
56123;DHT22;42426;46.104;19.656;2023-09-30T19:29:58;512.70;2380.80
56123;DHT22;42426;46.104;19.656;2023-09-30T19:32:24;512.70;2380.80
56123;DHT22;42426;46.104;19.656;2023-09-30T19:34:50;512.70;2380.80
56123;DHT22;42426;46.104;19.656;2023-09-30T19:37:16;512.60;2380.80
56123;DHT22;42426;46.104;19.656;2023-09-30T19:39:41;512.60;2380.80
56123;DHT22;42426;46.104;19.656;2023-09-30T19:42:09;512.70;2380.80
56123;DHT22;42426;46.104;19.656;2023-09-30T19:44:36;512.70;2380.80
56123;DHT22;42426;46.104;19.656;2023-09-30T19:47:04;512.60;2380.80
56123;DHT22;42426;46.104;19.656;2023-09-30T19:49:34;512.60;2380.80
56123;DHT22;42426;46.104;19.656;2023-09-30T19:52:02;512.60;2380.80
56123;DHT22;42426;46.104;19.656;2023-09-30T19:54:27;512.60;2380.80
56123;DHT22;42426;46.104;19.656;2023-09-30T19:56:53;512.60;2380.80
56123;DHT22;42426;46.104;19.656;2023-09-30T19:59:19;512.60;2380.80
56123;DHT22;42426;46.104;19.656;2023-09-30T20:01:45;512.50;2380.80
56123;DHT22;42426;46.104;19.656;2023-09-30T20:04:11;512.50;2380.80
56123;DHT22;42426;46.104;19.656;2023-09-30T20:06:37;512.50;2380.80
56123;DHT22;42426;46.104;19.656;2023-09-30T20:09:03;512.50;2380.80
56123;DHT22;42426;46.104;19.656;2023-09-30T20:11:32;512.40;2380.80
56123;DHT22;42426;46.104;19.656;2023-09-30T20:13:59;512.40;2380.80
56123;DHT22;42426;46.104;19.656;2023-09-30T20:16:26;512.40;2380.80
56123;DHT22;42426;46.104;19.656;2023-09-30T20:18:52;512.30;2380.80
56123;DHT22;42426;46.104;19.656;2023-09-30T20:21:18;512.30;2380.80
56123;DHT22;42426;46.104;19.656;2023-09-30T20:23:43;512.30;2380.80
56123;DHT22;42426;46.104;19.656;2023-09-30T20:26:10;512.30;2380.80
56123;DHT22;42426;46.104;19.656;2023-09-30T20:28:41;512.30;2380.80
56123;DHT22;42426;46.104;19.656;2023-09-30T20:31:07;512.30;2380.80
56123;DHT22;42426;46.104;19.656;2023-09-30T20:33:34;512.20;2380.80
56123;DHT22;42426;46.104;19.656;2023-09-30T20:36:00;512.20;2380.80
56123;DHT22;42426;46.104;19.656;2023-09-30T20:38:26;512.10;2380.80
56123;DHT22;42426;46.104;19.656;2023-09-30T20:40:51;512.10;2380.80
56123;DHT22;42426;46.104;19.656;2023-09-30T20:43:17;512.00;2380.80
56123;DHT22;42426;46.104;19.656;2023-09-30T20:45:43;512.00;2380.80
56123;DHT22;42426;46.104;19.656;2023-09-30T20:48:09;512.00;2380.80
56123;DHT22;42426;46.104;19.656;2023-09-30T20:50:35;512.00;2380.80
56123;DHT22;42426;46.104;19.656;2023-09-30T20:53:00;512.00;2380.80
56123;DHT22;42426;46.104;19.656;2023-09-30T20:55:26;512.00;2380.80
56123;DHT22;42426;46.104;19.656;2023-09-30T20:57:52;512.00;2380.80
56123;DHT22;42426;46.104;19.656;2023-09-30T21:00:20;487.30;2380.80
56123;DHT22;42426;46.104;19.656;2023-09-30T21:02:46;487.30;2380.80
56123;DHT22;42426;46.104;19.656;2023-09-30T21:05:12;512.00;2380.80
56123;DHT22;42426;46.104;19.656;2023-09-30T21:07:38;487.30;2380.80
56123;DHT22;42426;46.104;19.656;2023-09-30T21:10:04;487.30;2380.80